Time;durP1;ratioP1;P1;durP2;ratioP2;P2;SDS_P1;SDS_P2;PMS_P1;PMS_P2;Temp;Humidity;BMP_temperature;BMP_pressure;BME280_temperature;BME280_humidity;BME280_pressure;Samples;Min_cycle;Max_cycle;Signal;HPM_P1;HPM_P2
2021/05/17 00:00:10;;;;;;;2.83;1.50;;;14.10;94.80;;;;;;5048298;28;20547;-61
2021/05/17 00:02:47;;;;;;;3.72;1.38;;;14.10;94.60;;;;;;5046557;28;20049;-62
2021/05/17 00:05:14;;;;;;;;;;;14.20;94.10;;;;;;5042882;28;20080;-61
2021/05/17 00:07:42;;;;;;;4.03;1.30;;;14.20;94.40;;;;;;5033488;28;19928;-61
2021/05/17 00:10:10;;;;;;;2.65;1.00;;;14.20;94.40;;;;;;5049495;28;20166;-61
2021/05/17 00:12:38;;;;;;;4.63;1.50;;;14.30;94.20;;;;;;5030982;28;20144;-61
2021/05/17 00:15:10;;;;;;;2.28;0.90;;;14.30;93.90;;;;;;5048687;28;20049;-61
2021/05/17 00:17:38;;;;;;;3.78;1.63;;;14.40;93.70;;;;;;5048752;28;20057;-61
2021/05/17 00:20:07;;;;;;;5.00;1.48;;;14.40;93.70;;;;;;5049106;28;20045;-61
2021/05/17 00:22:35;;;;;;;3.35;1.23;;;14.50;93.50;;;;;;5042864;28;20407;-61
2021/05/17 00:25:02;;;;;;;2.83;1.13;;;14.50;93.40;;;;;;5048885;28;20048;-61
2021/05/17 00:27:30;;;;;;;2.38;0.98;;;14.50;93.20;;;;;;5023042;28;20108;-61
2021/05/17 00:29:57;;;;;;;5.35;1.98;;;14.50;93.30;;;;;;5029846;28;20119;-61
2021/05/17 00:32:24;;;;;;;2.08;1.20;;;14.30;93.50;;;;;;5052411;28;20053;-61
2021/05/17 00:34:53;;;;;;;4.00;1.50;;;14.30;94.10;;;;;;5034802;28;20061;-61
2021/05/17 00:37:20;;;;;;;2.95;1.52;;;14.10;94.70;;;;;;5050974;28;20080;-61
2021/05/17 00:39:47;;;;;;;2.80;1.10;;;14.10;94.80;;;;;;5034441;28;20060;-61
2021/05/17 00:42:15;;;;;;;3.15;1.45;;;14.10;95.10;;;;;;5034356;28;20111;-61
2021/05/17 00:44:42;;;;;;;4.97;1.60;;;14.20;95.00;;;;;;5052470;28;20056;-61
2021/05/17 00:47:14;;;;;;;2.53;1.30;;;14.20;95.00;;;;;;5051192;28;20077;-61
2021/05/17 00:49:45;;;;;;;2.45;1.20;;;14.30;94.90;;;;;;5053098;28;20074;-61
2021/05/17 00:52:14;;;;;;;1.90;0.95;;;14.40;94.80;;;;;;5028800;28;20053;-61
2021/05/17 00:54:41;;;;;;;3.85;0.98;;;14.30;94.10;;;;;;5052211;28;20049;-61
2021/05/17 00:57:09;;;;;;;2.53;1.00;;;14.30;94.60;;;;;;5029877;28;20049;-61
2021/05/17 00:59:36;;;;;;;2.72;1.20;;;14.20;94.90;;;;;;5039674;28;20404;-61
2021/05/17 01:02:04;;;;;;;2.50;1.30;;;14.20;95.00;;;;;;5037907;28;20045;-61
2021/05/17 01:05:02;;;;;;;2.38;1.08;;;14.10;95.10;;;;;;5040600;28;20400;-62
2021/05/17 01:07:31;;;;;;;2.17;1.30;;;14.10;95.00;;;;;;5053637;28;20055;-61
2021/05/17 01:09:59;;;;;;;1.98;0.80;;;14.00;95.30;;;;;;5019646;28;20190;-61
2021/05/17 01:12:27;;;;;;;2.55;1.10;;;14.10;95.30;;;;;;5054276;28;20048;-61
2021/05/17 01:14:57;;;;;;;4.32;1.30;;;14.10;95.10;;;;;;5030745;28;20049;-61
2021/05/17 01:17:28;;;;;;;2.13;0.80;;;14.20;95.10;;;;;;5026267;28;20045;-61
2021/05/17 01:20:09;;;;;;;1.83;1.00;;;14.10;94.70;;;;;;5022895;28;20076;-61
2021/05/17 01:25:19;;;;;;;2.35;0.80;;;14.10;95.90;;;;;;5033074;28;20048;-61
2021/05/17 01:27:48;;;;;;;2.80;0.85;;;14.00;96.00;;;;;;5036343;28;20470;-61
2021/05/17 01:30:17;;;;;;;1.88;0.70;;;14.10;96.20;;;;;;5052179;28;20056;-61
2021/05/17 01:32:48;;;;;;;3.90;1.00;;;14.20;95.50;;;;;;5017417;28;20050;-62
2021/05/17 01:35:15;;;;;;;2.22;1.10;;;14.10;95.60;;;;;;5033602;28;20049;-62
2021/05/17 01:37:46;;;;;;;3.15;0.85;;;14.10;96.00;;;;;;5032817;28;20431;-61
2021/05/17 01:40:18;;;;;;;2.28;0.93;;;14.20;95.70;;;;;;5035729;28;20438;-61
2021/05/17 01:42:49;;;;;;;2.20;1.05;;;14.20;95.30;;;;;;5043604;28;20135;-61
2021/05/17 01:45:16;;;;;;;2.17;1.00;;;14.20;95.40;;;;;;5051706;28;20437;-61
2021/05/17 01:47:45;;;;;;;3.92;1.08;;;14.20;95.20;;;;;;5052419;28;20392;-61
2021/05/17 01:50:16;;;;;;;4.43;1.00;;;14.20;95.20;;;;;;5030350;28;20449;-61
2021/05/17 01:52:44;;;;;;;3.30;0.60;;;14.20;95.20;;;;;;5033404;28;20069;-61
2021/05/17 01:55:12;;;;;;;1.95;0.88;;;14.10;95.30;;;;;;5025054;28;20071;-61
2021/05/17 01:57:40;;;;;;;2.72;0.93;;;14.10;95.40;;;;;;5041295;28;20041;-61
2021/05/17 02:00:17;;;;;;;5.50;0.75;;;14.00;96.10;;;;;;5033419;28;20081;-61
2021/05/17 02:02:52;;;;;;;3.47;0.98;;;14.00;96.10;;;;;;5015710;28;20049;-61
2021/05/17 02:05:23;;;;;;;1.98;0.73;;;14.10;96.30;;;;;;5025420;28;20049;-61
2021/05/17 02:07:55;;;;;;;1.00;0.50;;;14.20;96.10;;;;;;5032682;28;20507;-61
2021/05/17 02:10:23;;;;;;;1.53;0.50;;;14.20;95.80;;;;;;5036421;28;20045;-61
2021/05/17 02:12:51;;;;;;;1.95;0.63;;;14.40;95.00;;;;;;5020521;28;20053;-61
2021/05/17 02:15:19;;;;;;;1.55;0.50;;;14.50;94.80;;;;;;5033999;28;20049;-61
2021/05/17 02:18:08;;;;;;;1.90;0.88;;;14.60;94.50;;;;;;5034116;28;20068;-61
2021/05/17 02:20:37;;;;;;;2.05;1.00;;;14.70;95.00;;;;;;5052025;28;20059;-61
2021/05/17 02:23:08;;;;;;;6.72;0.77;;;14.70;94.50;;;;;;5013029;28;20151;-61
2021/05/17 02:25:48;;;;;;;1.92;0.60;;;14.70;94.60;;;;;;5016417;28;20057;-61
2021/05/17 02:28:18;;;;;;;3.15;0.63;;;14.60;94.90;;;;;;5017242;28;20060;-62
2021/05/17 02:30:46;;;;;;;1.70;0.60;;;14.50;95.20;;;;;;4999429;28;20045;-61
2021/05/17 02:33:14;;;;;;;1.40;0.60;;;14.40;95.70;;;;;;5013374;28;20060;-61
2021/05/17 02:35:42;;;;;;;3.90;0.52;;;14.40;95.90;;;;;;5015655;28;20104;-62
2021/05/17 02:38:12;;;;;;;2.35;0.75;;;14.40;96.30;;;;;;5015165;28;20063;-61
2021/05/17 02:40:44;;;;;;;1.25;0.50;;;14.40;96.60;;;;;;5022684;28;20060;-61
2021/05/17 02:43:12;;;;;;;1.38;0.70;;;14.30;96.70;;;;;;5030461;28;20065;-61
2021/05/17 02:46:01;;;;;;;2.70;0.55;;;14.40;96.90;;;;;;5031266;28;20045;-61
2021/05/17 02:48:32;;;;;;;1.10;0.50;;;14.40;96.70;;;;;;5022137;28;20053;-61
2021/05/17 02:50:59;;;;;;;1.13;0.60;;;14.40;96.50;;;;;;5031065;28;20046;-61
2021/05/17 02:53:29;;;;;;;2.05;0.65;;;14.50;96.60;;;;;;5025030;28;20540;-61
2021/05/17 02:56:05;;;;;;;2.47;0.63;;;14.40;96.80;;;;;;4998272;28;20774;-61
2021/05/17 02:58:36;;;;;;;3.10;0.60;;;14.40;97.60;;;;;;5020501;28;22038;-61
2021/05/17 03:01:09;;;;;;;5.07;0.85;;;14.40;97.40;;;;;;5023329;28;20045;-61
2021/05/17 03:03:47;;;;;;;2.60;0.70;;;14.50;98.00;;;;;;5003861;28;20075;-61
2021/05/17 03:06:40;;;;;;;1.50;0.65;;;14.50;98.30;;;;;;5015449;28;20056;-61
2021/05/17 03:09:10;;;;;;;3.15;0.70;;;14.50;98.00;;;;;;5031273;28;20053;-61
2021/05/17 03:11:46;;;;;;;1.45;0.50;;;14.40;98.00;;;;;;5020020;28;20045;-61
2021/05/17 03:14:17;;;;;;;2.17;0.70;;;14.30;98.50;;;;;;5015207;28;20132;-62
2021/05/17 03:17:17;;;;;;;2.13;1.25;;;14.40;99.30;;;;;;4998190;28;20050;-62
2021/05/17 03:19:47;;;;;;;1.55;0.43;;;14.40;99.90;;;;;;5015738;28;20064;-62
2021/05/17 03:22:15;;;;;;;1.58;0.60;;;14.30;99.90;;;;;;5048621;28;20104;-62
2021/05/17 03:24:45;;;;;;;1.90;0.63;;;14.30;99.90;;;;;;5060014;28;20107;-61
2021/05/17 03:27:23;;;;;;;2.25;1.00;;;14.40;99.90;;;;;;5050715;28;20057;-62
2021/05/17 03:29:51;;;;;;;5.72;1.05;;;14.40;99.90;;;;;;5042311;28;20056;-61
2021/05/17 03:32:19;;;;;;;1.95;0.80;;;14.40;99.90;;;;;;5031188;28;20049;-61
2021/05/17 03:34:46;;;;;;;1.63;0.88;;;14.40;99.90;;;;;;5031984;28;20059;-61
2021/05/17 03:37:13;;;;;;;2.20;1.17;;;14.40;99.90;;;;;;5027909;28;20044;-61
2021/05/17 03:39:44;;;;;;;1.42;0.80;;;14.40;99.90;;;;;;5009380;28;20053;-61
2021/05/17 03:42:11;;;;;;;2.08;1.40;;;14.30;99.90;;;;;;5027662;28;20080;-61
2021/05/17 03:44:38;;;;;;;2.55;1.02;;;14.40;99.90;;;;;;5030654;28;20080;-62
2021/05/17 03:47:06;;;;;;;4.00;1.55;;;14.40;99.90;;;;;;5029172;28;20610;-61
2021/05/17 03:49:33;;;;;;;2.25;1.42;;;14.40;99.90;;;;;;5049346;28;20060;-61
2021/05/17 03:52:00;;;;;;;3.63;1.98;;;14.40;99.90;;;;;;5049830;28;20059;-61
2021/05/17 03:54:27;;;;;;;2.58;1.75;;;14.40;99.90;;;;;;5016632;28;20061;-61
2021/05/17 03:56:54;;;;;;;3.42;1.40;;;14.50;99.90;;;;;;5031263;28;20060;-61
2021/05/17 03:59:21;;;;;;;3.28;2.10;;;14.50;99.90;;;;;;5047961;28;20049;-62
2021/05/17 04:01:49;;;;;;;3.30;1.40;;;14.50;99.90;;;;;;5028184;28;20053;-61
2021/05/17 04:04:19;;;;;;;4.50;1.50;;;14.60;99.90;;;;;;5047475;28;20037;-61
2021/05/17 04:15:09;;;;;;;4.00;1.73;;;14.60;99.90;;;;;;5054638;28;20049;-62
2021/05/17 04:17:36;;;;;;;3.65;1.60;;;14.70;99.90;;;;;;5053526;28;20049;-62
2021/05/17 04:20:03;;;;;;;3.53;1.65;;;14.70;99.90;;;;;;5041175;28;20052;-62
2021/05/17 04:22:31;;;;;;;4.07;1.50;;;14.80;99.90;;;;;;5046603;28;20052;-61
2021/05/17 04:24:58;;;;;;;3.97;1.42;;;14.80;99.90;;;;;;5052445;28;20049;-61
2021/05/17 04:27:25;;;;;;;2.72;1.35;;;14.80;99.90;;;;;;5052054;28;20049;-61
2021/05/17 04:29:51;;;;;;;2.95;1.70;;;14.80;99.90;;;;;;5035446;28;20678;-61
2021/05/17 04:32:18;;;;;;;1.98;1.02;;;14.80;99.90;;;;;;5053590;28;20102;-61
2021/05/17 04:34:45;;;;;;;2.15;1.13;;;14.90;99.90;;;;;;5035249;28;20061;-61
2021/05/17 04:37:12;;;;;;;2.95;1.30;;;14.90;99.90;;;;;;5053811;28;20472;-61
2021/05/17 04:39:39;;;;;;;2.83;1.30;;;14.80;99.90;;;;;;5034489;28;20048;-61
2021/05/17 04:42:07;;;;;;;2.92;1.15;;;14.90;99.90;;;;;;5013851;28;20059;-61
2021/05/17 04:44:34;;;;;;;2.55;1.23;;;14.90;99.90;;;;;;5034639;28;20560;-61
2021/05/17 04:47:01;;;;;;;2.03;1.20;;;14.90;99.90;;;;;;5033165;28;20047;-61
2021/05/17 04:49:29;;;;;;;2.35;0.85;;;15.00;99.90;;;;;;5062201;28;20044;-61
2021/05/17 04:51:56;;;;;;;2.80;1.23;;;15.00;99.90;;;;;;5036922;28;20431;-61
2021/05/17 04:54:25;;;;;;;1.70;1.17;;;15.00;99.90;;;;;;5051706;28;20111;-61
2021/05/17 04:56:52;;;;;;;2.58;1.45;;;15.00;99.90;;;;;;5033587;28;20052;-61
2021/05/17 04:59:19;;;;;;;3.42;1.58;;;15.00;99.90;;;;;;5050386;28;20527;-61
2021/05/17 05:01:46;;;;;;;2.40;1.30;;;15.10;99.90;;;;;;5052153;28;20045;-61
2021/05/17 05:04:14;;;;;;;3.25;1.52;;;15.00;99.90;;;;;;5052672;28;20044;-61
2021/05/17 05:06:41;;;;;;;4.70;2.05;;;15.00;99.90;;;;;;5033760;28;20049;-61
2021/05/17 05:09:08;;;;;;;3.50;1.67;;;15.00;99.90;;;;;;5051054;28;20076;-61
2021/05/17 05:11:35;;;;;;;3.67;1.75;;;15.00;99.90;;;;;;5035173;28;20056;-61
2021/05/17 05:14:02;;;;;;;4.20;2.40;;;15.00;99.90;;;;;;5052623;28;20107;-61
2021/05/17 05:16:30;;;;;;;3.63;2.03;;;15.00;99.90;;;;;;5050296;28;20041;-61
2021/05/17 05:18:57;;;;;;;5.07;2.72;;;15.00;99.90;;;;;;5048880;28;20056;-61
2021/05/17 05:21:24;;;;;;;3.72;2.40;;;15.00;99.90;;;;;;5035936;28;20647;-61
2021/05/17 05:23:51;;;;;;;3.55;2.25;;;15.00;99.90;;;;;;5017970;28;20496;-61
2021/05/17 05:31:41;;;;;;;4.50;2.20;;;15.00;99.90;;;;;;5031255;28;20034;-61
2021/05/17 05:34:08;;;;;;;4.85;2.15;;;15.00;99.90;;;;;;5014096;28;20136;-61
2021/05/17 05:36:35;;;;;;;6.10;2.25;;;15.00;99.90;;;;;;5032600;28;20461;-61
2021/05/17 05:39:03;;;;;;;6.45;2.70;;;15.00;99.90;;;;;;5011912;28;20053;-61
2021/05/17 05:41:31;;;;;;;5.53;2.35;;;15.10;99.90;;;;;;5032018;28;20041;-61
2021/05/17 05:43:58;;;;;;;6.38;2.15;;;15.10;99.90;;;;;;5029009;28;20042;-61
2021/05/17 05:46:25;;;;;;;5.97;2.67;;;15.20;99.90;;;;;;5029111;28;20448;-61
2021/05/17 05:48:53;;;;;;;5.25;3.15;;;15.20;99.90;;;;;;5012361;28;20140;-61
2021/05/17 05:51:22;;;;;;;7.20;2.42;;;15.20;99.90;;;;;;5030598;28;20077;-61
2021/05/17 05:53:50;;;;;;;7.63;2.75;;;15.20;99.90;;;;;;5028786;28;20052;-61
2021/05/17 05:56:18;;;;;;;6.10;2.88;;;15.10;99.90;;;;;;5013120;28;20100;-61
2021/05/17 05:58:47;;;;;;;4.88;2.97;;;15.10;99.90;;;;;;5011367;28;20128;-61
2021/05/17 06:01:15;;;;;;;8.65;3.00;;;15.20;99.90;;;;;;5011036;28;20052;-61
2021/05/17 06:03:42;;;;;;;7.85;3.80;;;15.20;99.90;;;;;;5030403;28;20658;-61
2021/05/17 06:06:09;;;;;;;7.20;3.38;;;15.20;99.90;;;;;;4995507;28;20038;-67
2021/05/17 06:08:40;;;;;;;7.38;3.00;;;15.20;99.90;;;;;;5028509;28;20049;-68
2021/05/17 06:11:08;;;;;;;6.05;2.90;;;15.10;99.90;;;;;;5030779;28;20515;-68
2021/05/17 06:13:37;;;;;;;5.32;2.90;;;15.10;99.90;;;;;;5011434;28;20053;-68
2021/05/17 06:16:09;;;;;;;7.45;3.72;;;15.10;99.90;;;;;;5008034;28;20045;-68
2021/05/17 06:18:36;;;;;;;6.10;3.15;;;15.00;99.90;;;;;;5025580;28;20050;-68
2021/05/17 06:21:04;;;;;;;6.72;2.90;;;15.00;99.90;;;;;;5023801;28;20859;-68
2021/05/17 06:23:32;;;;;;;7.43;3.40;;;15.00;99.90;;;;;;5014768;28;20156;-68
2021/05/17 06:25:59;;;;;;;6.85;2.88;;;15.00;99.90;;;;;;5049662;28;20060;-68
2021/05/17 06:28:27;;;;;;;7.95;3.30;;;15.10;99.90;;;;;;5042984;28;20055;-68
2021/05/17 06:30:57;;;;;;;4.63;2.88;;;15.10;99.90;;;;;;5049482;28;20049;-68
2021/05/17 06:33:25;;;;;;;5.55;2.97;;;15.10;99.90;;;;;;5031201;28;20057;-68
2021/05/17 06:35:59;;;;;;;8.55;3.20;;;15.10;99.90;;;;;;5049326;28;20076;-68
2021/05/17 06:38:29;;;;;;;5.60;3.25;;;15.10;99.90;;;;;;5051484;28;20045;-68
2021/05/17 06:40:57;;;;;;;7.40;4.07;;;15.10;99.90;;;;;;5030852;28;20045;-68
2021/05/17 06:43:25;;;;;;;6.90;3.75;;;15.10;99.90;;;;;;5032045;28;20555;-68
2021/05/17 06:45:52;;;;;;;6.05;3.35;;;15.00;99.90;;;;;;5050138;28;20096;-68
2021/05/17 06:48:19;;;;;;;8.10;3.35;;;15.10;99.90;;;;;;5030971;28;20052;-68
2021/05/17 06:50:47;;;;;;;8.13;3.40;;;15.10;99.90;;;;;;5030696;28;20135;-68
2021/05/17 06:53:14;;;;;;;6.72;3.60;;;15.10;99.90;;;;;;5048660;28;20107;-68
2021/05/17 06:56:00;;;;;;;6.68;3.88;;;15.10;99.90;;;;;;5030998;28;20049;-68
2021/05/17 06:58:47;;;;;;;5.85;3.03;;;15.10;99.90;;;;;;5048245;28;20045;-68
2021/05/17 07:01:15;;;;;;;6.22;3.08;;;15.10;99.90;;;;;;5030965;28;20124;-68
2021/05/17 07:03:42;;;;;;;15.38;3.42;;;15.10;99.90;;;;;;5049709;28;20052;-68
2021/05/17 07:06:12;;;;;;;7.55;3.78;;;15.10;99.90;;;;;;5049388;28;20045;-68
2021/05/17 07:14:02;;;;;;;7.22;3.92;;;15.20;99.90;;;;;;5048643;28;20087;-67
2021/05/17 07:16:29;;;;;;;6.28;3.55;;;15.20;99.90;;;;;;5012524;28;20061;-68
2021/05/17 07:18:56;;;;;;;7.45;3.55;;;15.20;99.90;;;;;;5048953;28;20057;-68
2021/05/17 07:24:11;;;;;;;8.77;3.83;;;15.10;99.90;;;;;;4999070;28;20061;-69
2021/05/17 07:26:38;;;;;;;8.05;4.45;;;15.10;99.90;;;;;;5005272;28;20084;-68
2021/05/17 07:29:08;;;;;;;8.10;4.20;;;15.10;99.90;;;;;;5005788;28;20085;-68
2021/05/17 07:31:35;;;;;;;8.20;4.22;;;15.20;99.90;;;;;;4996960;28;20437;-68
2021/05/17 07:34:02;;;;;;;7.95;3.63;;;15.20;99.90;;;;;;4990128;28;20213;-68
2021/05/17 07:36:29;;;;;;;7.55;4.13;;;15.20;99.90;;;;;;4990831;28;20057;-68
2021/05/17 07:38:56;;;;;;;5.93;3.50;;;15.20;99.90;;;;;;4978073;28;20105;-68
2021/05/17 07:41:23;;;;;;;7.93;4.00;;;15.20;99.90;;;;;;4995082;28;20407;-68
2021/05/17 07:43:50;;;;;;;8.52;3.90;;;15.20;99.90;;;;;;4995042;28;20105;-68
2021/05/17 07:46:18;;;;;;;7.57;3.67;;;15.20;99.90;;;;;;5004754;28;20054;-68
2021/05/17 07:51:30;;;;;;;7.15;3.55;;;15.20;99.90;;;;;;5004859;28;20052;-68
2021/05/17 07:53:57;;;;;;;5.72;3.70;;;15.20;99.90;;;;;;4996099;28;20058;-68
2021/05/17 07:56:25;;;;;;;9.35;3.65;;;15.30;99.90;;;;;;5007460;28;20046;-68
2021/05/17 07:58:52;;;;;;;8.02;3.78;;;15.30;99.90;;;;;;5005108;28;20216;-68
2021/05/17 08:01:19;;;;;;;5.40;3.28;;;15.30;99.90;;;;;;5022804;28;20056;-68
2021/05/17 08:03:46;;;;;;;5.60;3.28;;;15.20;99.90;;;;;;5029172;28;20049;-68
2021/05/17 08:06:13;;;;;;;4.18;2.35;;;15.20;99.90;;;;;;5048940;28;20047;-68
2021/05/17 08:08:40;;;;;;;7.90;2.88;;;15.20;99.90;;;;;;5046433;28;20107;-68
2021/05/17 08:11:07;;;;;;;3.95;2.55;;;15.20;99.90;;;;;;5042417;28;20579;-68
2021/05/17 08:13:35;;;;;;;7.32;3.22;;;15.20;99.90;;;;;;5029020;28;20053;-68
2021/05/17 08:16:19;;;;;;;6.13;3.13;;;15.20;99.90;;;;;;5024981;28;20049;-68
2021/05/17 08:18:46;;;;;;;4.88;2.92;;;15.20;99.90;;;;;;5048657;28;20053;-68
2021/05/17 08:21:13;;;;;;;5.72;2.90;;;15.30;99.90;;;;;;5045023;28;20378;-67
2021/05/17 08:23:41;;;;;;;5.30;2.95;;;15.20;99.90;;;;;;5029684;28;20037;-67
2021/05/17 08:26:08;;;;;;;5.53;2.90;;;15.30;99.90;;;;;;5048292;28;20407;-67
2021/05/17 08:28:36;;;;;;;4.97;2.58;;;15.30;99.90;;;;;;5026098;28;20064;-68
2021/05/17 08:31:04;;;;;;;3.03;1.73;;;15.30;99.90;;;;;;5028448;28;20075;-68
2021/05/17 08:33:33;;;;;;;3.55;2.08;;;15.30;99.90;;;;;;5047006;28;20037;-69
2021/05/17 08:36:00;;;;;;;5.45;2.60;;;15.30;99.90;;;;;;5029545;28;20049;-69
2021/05/17 08:38:27;;;;;;;5.68;2.55;;;15.30;99.90;;;;;;5024215;28;20052;-69
2021/05/17 08:40:54;;;;;;;4.57;2.10;;;15.30;99.90;;;;;;5046440;28;20676;-69
2021/05/17 08:43:21;;;;;;;4.22;2.47;;;15.30;99.90;;;;;;5027554;28;20049;-69
2021/05/17 08:45:52;;;;;;;5.80;2.10;;;15.20;99.90;;;;;;5014693;28;20066;-69
2021/05/17 08:48:20;;;;;;;4.07;1.80;;;15.20;99.90;;;;;;5025278;28;20049;-70
2021/05/17 08:50:47;;;;;;;5.13;1.80;;;15.20;99.90;;;;;;5009865;28;20061;-69
2021/05/17 08:53:15;;;;;;;4.75;1.70;;;15.30;99.90;;;;;;5007131;28;20512;-69
2021/05/17 08:55:42;;;;;;;4.55;1.95;;;15.30;99.90;;;;;;5021708;28;20511;-69
2021/05/17 08:58:09;;;;;;;3.72;1.70;;;15.30;99.90;;;;;;5009523;28;20045;-69
2021/05/17 09:00:36;;;;;;;3.53;1.30;;;15.30;99.90;;;;;;5030533;28;20049;-69
2021/05/17 09:03:03;;;;;;;2.45;1.60;;;15.40;99.90;;;;;;4993515;28;20098;-67
2021/05/17 09:05:37;;;;;;;2.75;1.40;;;15.30;99.90;;;;;;5031208;28;20484;-68
2021/05/17 09:08:05;;;;;;;3.45;2.17;;;15.40;99.90;;;;;;5046819;28;20044;-69
2021/05/17 09:10:35;;;;;;;4.47;1.77;;;15.40;99.90;;;;;;5041695;28;20052;-69
2021/05/17 09:13:15;;;;;;;2.67;1.17;;;15.50;99.90;;;;;;5049149;28;20065;-69
2021/05/17 09:15:54;;;;;;;2.78;1.60;;;15.50;99.90;;;;;;5033706;28;20088;-69
2021/05/17 09:18:24;;;;;;;2.80;1.58;;;15.50;99.90;;;;;;5033553;28;20052;-69
2021/05/17 09:20:52;;;;;;;3.90;1.60;;;15.60;99.90;;;;;;5034565;28;20052;-69
2021/05/17 09:23:31;;;;;;;3.55;2.03;;;15.60;99.90;;;;;;5052716;28;20508;-69
2021/05/17 09:26:11;;;;;;;3.75;1.58;;;15.60;99.90;;;;;;5053133;28;20053;-69
2021/05/17 09:28:45;;;;;;;3.67;1.95;;;15.60;99.90;;;;;;5051446;28;20056;-69
2021/05/17 09:31:20;;;;;;;3.08;1.90;;;15.60;99.90;;;;;;5050444;28;20049;-69
2021/05/17 09:33:48;;;;;;;3.58;1.92;;;15.60;99.90;;;;;;5033100;28;20063;-69
2021/05/17 09:36:42;;;;;;;2.25;1.35;;;15.60;99.90;;;;;;5015318;28;20048;-68
2021/05/17 09:39:17;;;;;;;3.63;2.08;;;15.60;99.90;;;;;;5027873;28;20056;-68
2021/05/17 09:41:51;;;;;;;3.03;2.13;;;15.70;99.90;;;;;;5026919;28;20057;-68
2021/05/17 09:44:27;;;;;;;3.00;1.80;;;15.70;99.90;;;;;;5026916;28;20050;-68
2021/05/17 09:46:58;;;;;;;4.25;1.60;;;15.80;99.90;;;;;;5045037;28;20377;-68
2021/05/17 09:49:34;;;;;;;2.60;1.75;;;15.80;99.90;;;;;;5050888;28;20055;-68
2021/05/17 09:52:05;;;;;;;3.70;1.55;;;15.80;99.90;;;;;;5033221;28;20045;-68
2021/05/17 09:54:49;;;;;;;3.53;2.10;;;15.80;99.90;;;;;;5028009;28;20061;-68
2021/05/17 09:57:23;;;;;;;3.20;1.70;;;15.90;99.90;;;;;;5026316;28;20056;-68
2021/05/17 09:59:52;;;;;;;3.70;2.45;;;15.90;99.90;;;;;;5028743;28;20049;-68
2021/05/17 10:02:33;;;;;;;3.42;2.10;;;15.80;99.90;;;;;;5045250;28;20049;-67
2021/05/17 10:05:21;;;;;;;4.15;2.08;;;15.80;99.90;;;;;;5047339;28;20045;-68
2021/05/17 10:07:57;;;;;;;5.90;2.00;;;15.80;99.90;;;;;;5049780;28;20789;-67
2021/05/17 10:10:41;;;;;;;4.50;2.08;;;15.90;99.90;;;;;;5024891;28;20625;-68
2021/05/17 10:13:08;;;;;;;5.20;2.60;;;15.90;99.90;;;;;;5024738;28;20392;-68
2021/05/17 10:15:36;;;;;;;3.97;2.60;;;15.90;99.90;;;;;;5028995;28;20064;-68
2021/05/17 10:18:12;;;;;;;4.45;2.65;;;15.90;99.90;;;;;;5050438;28;20403;-68
2021/05/17 10:20:40;;;;;;;4.90;2.92;;;15.90;99.90;;;;;;5024990;28;20053;-68
2021/05/17 10:23:09;;;;;;;6.85;3.03;;;15.90;99.90;;;;;;5049011;28;20488;-69
2021/05/17 10:25:40;;;;;;;4.30;3.03;;;15.90;99.90;;;;;;5027603;28;20053;-69
2021/05/17 10:28:14;;;;;;;4.32;2.75;;;15.90;99.90;;;;;;5045068;28;20127;-66
2021/05/17 10:30:42;;;;;;;6.50;3.35;;;15.90;99.90;;;;;;5036369;28;20063;-66
2021/05/17 10:33:11;;;;;;;7.60;2.90;;;16.00;99.90;;;;;;5043685;28;20055;-66
2021/05/17 10:35:40;;;;;;;6.00;3.58;;;16.00;99.90;;;;;;5041114;28;20593;-64
2021/05/17 10:38:21;;;;;;;5.53;3.10;;;16.10;99.90;;;;;;5040402;28;20047;-64
2021/05/17 10:40:56;;;;;;;7.00;4.05;;;16.10;99.90;;;;;;5026091;28;20054;-65
2021/05/17 10:44:07;;;;;;;5.28;3.70;;;16.20;99.90;;;;;;5026669;28;20065;-66
2021/05/17 10:46:37;;;;;;;4.32;2.50;;;16.30;99.90;;;;;;5014499;28;20605;-69
2021/05/17 10:49:29;;;;;;;3.20;2.22;;;16.40;99.90;;;;;;5024538;28;20075;-69
2021/05/17 10:52:06;;;;;;;2.15;1.95;;;16.40;99.90;;;;;;5045287;28;20064;-69
2021/05/17 10:54:42;;;;;;;4.65;2.60;;;16.40;99.90;;;;;;5046922;28;20045;-69
2021/05/17 10:57:58;;;;;;;3.33;2.22;;;16.40;99.90;;;;;;5031668;28;20057;-68
2021/05/17 11:00:26;;;;;;;4.13;1.92;;;16.40;99.90;;;;;;5039661;28;20059;-69
2021/05/17 11:03:10;;;;;;;2.22;1.33;;;16.50;99.90;;;;;;5029640;28;20139;-69
2021/05/17 11:05:40;;;;;;;1.88;1.08;;;16.40;99.90;;;;;;5049881;28;20087;-69
2021/05/17 11:08:13;;;;;;;3.65;1.00;;;16.50;99.90;;;;;;5047943;28;20051;-69
2021/05/17 11:11:02;;;;;;;4.07;1.50;;;16.50;99.90;;;;;;5044039;28;20049;-69
2021/05/17 11:13:30;;;;;;;1.77;1.35;;;16.40;99.90;;;;;;5031512;28;20055;-69
2021/05/17 11:16:03;;;;;;;2.30;1.50;;;16.30;99.90;;;;;;5030696;28;20075;-69
2021/05/17 11:18:34;;;;;;;2.08;1.35;;;16.30;99.90;;;;;;5023872;28;20064;-69
2021/05/17 11:21:12;;;;;;;2.85;1.77;;;16.40;99.90;;;;;;5008765;28;20053;-69
2021/05/17 11:23:44;;;;;;;2.05;1.27;;;16.30;99.90;;;;;;5043612;28;20044;-67
2021/05/17 11:26:14;;;;;;;3.40;1.60;;;16.30;99.90;;;;;;5027231;28;20060;-68
2021/05/17 11:28:42;;;;;;;2.50;1.70;;;16.30;99.90;;;;;;5031077;28;20072;-68
2021/05/17 11:31:20;;;;;;;2.50;1.65;;;16.30;99.90;;;;;;5043606;28;20048;-68
2021/05/17 11:33:48;;;;;;;2.83;1.70;;;16.40;99.90;;;;;;5031117;28;20080;-68
2021/05/17 11:36:16;;;;;;;1.80;1.35;;;16.30;99.90;;;;;;5046181;28;20064;-68
2021/05/17 11:39:15;;;;;;;2.85;2.20;;;16.30;99.90;;;;;;5025797;28;20887;-68
2021/05/17 11:41:46;;;;;;;3.97;2.38;;;16.30;99.90;;;;;;5025453;28;20498;-68
2021/05/17 11:44:22;;;;;;;3.25;2.08;;;16.30;99.90;;;;;;5026851;28;20048;-68
2021/05/17 11:46:53;;;;;;;4.50;2.65;;;16.30;99.90;;;;;;5045883;28;20045;-68
2021/05/17 11:49:22;;;;;;;60.20;22.67;;;16.20;99.90;;;;;;5026933;28;20060;-68
2021/05/17 11:51:55;;;;;;;23.92;10.45;;;16.40;99.90;;;;;;5025631;28;20061;-68
2021/05/17 11:54:24;;;;;;;20.55;10.80;;;16.30;99.90;;;;;;5040803;28;20060;-68
2021/05/17 11:56:53;;;;;;;49.38;18.52;;;16.30;99.90;;;;;;5009760;28;20068;-68
2021/05/17 11:59:23;;;;;;;24.23;8.68;;;16.40;99.90;;;;;;5027629;28;20056;-68
2021/05/17 12:01:52;;;;;;;24.92;7.65;;;16.40;99.90;;;;;;5035983;28;20056;-68
2021/05/17 12:04:23;;;;;;;5.13;2.90;;;16.30;99.90;;;;;;5026401;28;20493;-68
2021/05/17 12:06:56;;;;;;;26.08;10.23;;;16.30;99.90;;;;;;5027329;28;20386;-68
2021/05/17 12:09:28;;;;;;;7.22;3.53;;;16.10;99.90;;;;;;5043154;28;20061;-69
2021/05/17 12:11:56;;;;;;;5.95;3.70;;;16.10;99.90;;;;;;5039086;28;20049;-65
2021/05/17 12:14:23;;;;;;;15.88;6.47;;;16.10;99.90;;;;;;5041966;28;20521;-66
2021/05/17 12:17:03;;;;;;;8.68;3.53;;;16.10;99.90;;;;;;5023311;28;20056;-67
2021/05/17 12:19:31;;;;;;;2.97;1.80;;;16.00;99.90;;;;;;5042465;28;20128;-69
2021/05/17 12:22:04;;;;;;;1.55;0.73;;;15.70;99.90;;;;;;5014390;28;20065;-68
2021/05/17 12:24:32;;;;;;;1.73;0.70;;;15.30;99.90;;;;;;5022433;28;20136;-69
2021/05/17 12:27:02;;;;;;;1.77;0.98;;;15.20;99.90;;;;;;4992372;28;20103;-69
2021/05/17 12:29:47;;;;;;;1.20;0.88;;;15.20;99.90;;;;;;5014641;28;20060;-70
2021/05/17 12:32:15;;;;;;;1.83;0.70;;;15.10;99.90;;;;;;5028266;28;20050;-69
2021/05/17 12:34:57;;;;;;;1.38;0.85;;;14.90;99.90;;;;;;5004655;28;20061;-69
2021/05/17 12:37:31;;;;;;;5.15;1.80;;;14.90;99.90;;;;;;5025375;28;20080;-67
2021/05/17 12:40:13;;;;;;;3.28;1.42;;;15.00;99.90;;;;;;5026347;28;20060;-65
2021/05/17 12:42:42;;;;;;;4.22;1.30;;;14.80;99.90;;;;;;5026377;28;20053;-65
2021/05/17 12:45:13;;;;;;;3.20;1.33;;;14.80;99.90;;;;;;5024255;28;20053;-65
2021/05/17 12:47:42;;;;;;;7.03;1.40;;;14.90;99.90;;;;;;5027086;28;20059;-65
2021/05/17 12:50:20;;;;;;;2.38;1.17;;;14.80;99.90;;;;;;5003941;28;20061;-65
2021/05/17 12:52:49;;;;;;;2.00;1.13;;;14.70;99.90;;;;;;5011491;28;20077;-68
2021/05/17 12:55:18;;;;;;;2.60;1.45;;;14.70;99.90;;;;;;5027127;28;20065;-65
2021/05/17 12:57:52;;;;;;;4.90;1.30;;;14.60;99.90;;;;;;5024265;28;20786;-64
2021/05/17 13:00:45;;;;;;;1.45;0.90;;;14.60;99.90;;;;;;5014831;28;20053;-64
2021/05/17 13:03:30;;;;;;;2.25;0.90;;;14.50;99.90;;;;;;5028834;28;20041;-69
2021/05/17 13:06:10;;;;;;;2.13;1.30;;;14.60;99.90;;;;;;5020283;28;20044;-69
2021/05/17 13:08:40;;;;;;;5.20;0.88;;;14.60;99.90;;;;;;5025096;28;20507;-66
2021/05/17 13:11:11;;;;;;;2.50;0.90;;;14.70;99.90;;;;;;5023894;28;20053;-69
2021/05/17 13:13:58;;;;;;;2.58;1.20;;;14.70;99.90;;;;;;4992174;28;20471;-69
2021/05/17 13:16:48;;;;;;;8.38;2.22;;;14.70;99.90;;;;;;5004374;28;20396;-68
2021/05/17 13:31:01;;;;;;;3.25;0.85;;;14.70;99.90;;;;;;5031854;28;20435;-69
2021/05/17 13:33:37;;;;;;;3.75;0.60;;;14.70;99.90;;;;;;5025448;28;20052;-68
2021/05/17 13:36:10;;;;;;;7.07;1.98;;;14.70;99.90;;;;;;5038451;28;20128;-68
2021/05/17 13:38:39;;;;;;;2.08;0.88;;;14.70;99.90;;;;;;5049138;28;20060;-68
2021/05/17 13:41:07;;;;;;;3.13;0.77;;;14.70;99.90;;;;;;5047412;28;20438;-69
2021/05/17 13:43:35;;;;;;;2.58;0.40;;;14.70;99.90;;;;;;5031520;28;20053;-68